| time (UTC) | temp C | wind direction | speed KPH | gust KPH | rain 1hr cm | rain 24hr cm | rain mn cm | humidity % | barometer mb |
| 20260506150015 | 9 | 317 | 0.0 | 9.7 | 0.03 | 0.66 | 0.48 | 88 | 1008.1 |
| 20260506144519 | 9 | 259 | 0.0 | 8.0 | 0.00 | 0.64 | 0.46 | 89 | 1008.1 |
| 20260506143012 | 9 | 301 | 0.0 | 6.4 | 0.00 | 0.64 | 0.46 | 89 | 1008.0 |
| 20260506141511 | 9 | 9 | 0.0 | 3.2 | 0.05 | 0.64 | 0.46 | 90 | 1007.8 |
| 20260506140009 | 9 | 23 | 0.0 | 9.7 | 0.15 | 0.64 | 0.46 | 89 | 1007.7 |
| 20260506134509 | 9 | 335 | 0.0 | 14.5 | 0.25 | 0.64 | 0.46 | 89 | 1007.7 |
| 20260506133006 | 8 | 319 | 0.0 | 8.0 | 0.30 | 0.64 | 0.46 | 89 | 1007.9 |
| 20260506131507 | 8 | 289 | 0.0 | 14.5 | 0.28 | 0.58 | 0.41 | 89 | 1007.9 |
| 20260506130003 | 8 | 355 | 0.0 | 14.5 | 0.23 | 0.48 | 0.30 | 88 | 1007.7 |
| 20260506124600 | 9 | 281 | 1.6 | 16.1 | 0.15 | 0.38 | 0.20 | 87 | 1007.3 |
| 20260506123056 | 10 | 340 | 1.6 | 19.3 | 0.10 | 0.33 | 0.15 | 86 | 1007.0 |
| 20260506121552 | 10 | 249 | 4.8 | 27.4 | 0.05 | 0.30 | 0.13 | 84 | 1006.4 |
| 20260506120048 | 11 | 360 | 4.8 | 22.5 | 0.00 | 0.23 | 0.05 | 85 | 1005.9 |
| 20260506114548 | 12 | 34 | 0.0 | 9.7 | 0.00 | 0.23 | 0.05 | 83 | 1005.6 |
| 20260506113047 | 12 | 348 | 0.0 | 4.8 | 0.00 | 0.23 | 0.05 | 82 | 1005.2 |
| 20260506111545 | 13 | 329 | 0.0 | 4.8 | 0.00 | 0.23 | 0.05 | 81 | 1005.2 |
| 20260506110047 | 13 | 5 | 0.0 | 0.0 | 0.03 | 0.23 | 0.05 | 83 | 1005.1 |
| 20260506104548 | 13 | 9 | 0.0 | 0.0 | 0.03 | 0.23 | 0.05 | 85 | 1005.1 |
| 20260506103041 | 13 | 11 | 0.0 | 0.0 | 0.03 | 0.23 | 0.05 | 84 | 1005.2 |
| 20260506101541 | 12 | 22 | 0.0 | 0.0 | 0.03 | 0.23 | 0.05 | 84 | 1005.2 |
| 20260506100042 | 13 | 22 | 0.0 | 3.2 | 0.00 | 0.23 | 0.05 | 83 | 1005.1 |
| 20260506094540 | 13 | 327 | 0.0 | 0.0 | 0.03 | 0.25 | 0.05 | 83 | 1005.3 |
| 20260506093041 | 12 | 35 | 0.0 | 0.0 | 0.03 | 0.25 | 0.05 | 85 | 1005.3 |
| 20260506091535 | 12 | 32 | 0.0 | 0.0 | 0.03 | 0.25 | 0.05 | 85 | 1005.1 |
| 20260506090032 | 12 | 307 | 0.0 | 0.0 | 0.03 | 0.25 | 0.05 | 86 | 1005.0 |
| 20260506084536 | 12 | 307 | 0.0 | 0.0 | 0.00 | 0.23 | 0.03 | 85 | 1005.1 |
| 20260506083030 | 12 | 307 | 0.0 | 0.0 | 0.00 | 0.23 | 0.03 | 84 | 1005.2 |
| 20260506081529 | 11 | 307 | 0.0 | 0.0 | 0.00 | 0.23 | 0.03 | 85 | 1005.0 |
| 20260506073022 | 11 | 307 | 0.0 | 0.0 | 0.00 | 0.23 | 0.03 | 89 | 1005.1 |
| 20260506071520 | 11 | 307 | 0.0 | 0.0 | 0.00 | 0.23 | 0.03 | 90 | 1005.2 |
| 20260506061506 | 10 | 307 | 0.0 | 0.0 | 0.00 | 0.23 | 0.03 | 91 | 1005.2 |
| 20260506044552 | 8 | 307 | 0.0 | 0.0 | 0.00 | 0.23 | 0.03 | 90 | 1005.4 |
| 20260506043048 | 8 | 276 | 0.0 | 0.0 | 0.00 | 0.23 | 0.03 | 90 | 1005.5 |
| 20260506041553 | 8 | 276 | 0.0 | 0.0 | 0.00 | 0.23 | 0.03 | 90 | 1005.5 |
| 20260506040044 | 9 | 276 | 0.0 | 0.0 | 0.00 | 0.23 | 0.03 | 90 | 1005.6 |
| 20260506034547 | 9 | 276 | 0.0 | 0.0 | 0.00 | 0.23 | 0.03 | 90 | 1006.0 |
| 20260506033042 | 9 | 276 | 0.0 | 0.0 | 0.00 | 0.23 | 0.03 | 90 | 1006.0 |
| 20260506031539 | 9 | 276 | 0.0 | 0.0 | 0.00 | 0.23 | 0.03 | 90 | 1006.3 |
| 20260506030039 | 9 | 276 | 0.0 | 0.0 | 0.00 | 0.23 | 0.03 | 90 | 1006.4 |
| 20260506024537 | 9 | 276 | 0.0 | 0.0 | 0.00 | 0.23 | 0.03 | 90 | 1006.4 |
| 20260506023035 | 9 | 276 | 0.0 | 0.0 | 0.00 | 0.23 | 0.03 | 90 | 1006.6 |
| 20260506021541 | 9 | 276 | 0.0 | 0.0 | 0.00 | 0.23 | 0.03 | 90 | 1006.7 |
| 20260506020032 | 9 | 276 | 0.0 | 0.0 | 0.00 | 0.23 | 0.03 | 90 | 1006.8 |
| 20260506014530 | 9 | 276 | 0.0 | 0.0 | 0.00 | 0.23 | 0.03 | 90 | 1007.0 |
| 20260506013033 | 9 | 276 | 0.0 | 0.0 | 0.00 | 0.23 | 0.03 | 90 | 1007.0 |
| 20260506011544 | 9 | 276 | 0.0 | 0.0 | 0.00 | 0.23 | 0.03 | 90 | 1007.3 |
| 20260506010028 | 9 | 276 | 0.0 | 0.0 | 0.00 | 0.23 | 0.03 | 90 | 1007.3 |
| 20260506004536 | 9 | 276 | 0.0 | 0.0 | 0.00 | 0.23 | 0.03 | 90 | 1007.5 |
| 20260506003026 | 9 | 276 | 0.0 | 0.0 | 0.00 | 0.23 | 0.03 | 90 | 1007.6 |
| 20260506001524 | 9 | 276 | 0.0 | 0.0 | 0.00 | 0.23 | 0.03 | 90 | 1007.9 |
| 20260506000022 | 9 | 276 | 0.0 | 0.0 | 0.00 | 0.23 | 0.03 | 90 | 1008.1 |
| 20260505234522 | 9 | 276 | 0.0 | 0.0 | 0.00 | 0.23 | 0.03 | 90 | 1007.9 |
| 20260505233029 | 9 | 276 | 0.0 | 0.0 | 0.00 | 0.23 | 0.03 | 90 | 1008.0 |
| 20260505231522 | 10 | 276 | 0.0 | 0.0 | 0.00 | 0.23 | 0.03 | 90 | 1008.0 |
| 20260505230017 | 10 | 276 | 0.0 | 0.0 | 0.03 | 0.23 | 0.03 | 90 | 1008.2 |
| 20260505224517 | 10 | 276 | 0.0 | 0.0 | 0.05 | 0.23 | 0.03 | 89 | 1008.2 |
| 20260505223019 | 10 | 276 | 0.0 | 0.0 | 0.05 | 0.23 | 0.03 | 89 | 1008.1 |
| 20260505221514 | 10 | 276 | 0.0 | 0.0 | 0.08 | 0.23 | 0.03 | 89 | 1008.2 |
| 20260505220022 | 10 | 276 | 0.0 | 0.0 | 0.05 | 0.23 | 0.00 | 89 | 1008.3 |
| 20260505214524 | 10 | 276 | 0.0 | 0.0 | 0.08 | 0.20 | 0.20 | 89 | 1008.5 |
| 20260505213018 | 10 | 276 | 0.0 | 0.0 | 0.05 | 0.18 | 0.18 | 89 | 1008.6 |
| 20260505211511 | 10 | 276 | 0.0 | 0.0 | 0.05 | 0.15 | 0.15 | 88 | 1008.7 |
| 20260505210010 | 10 | 276 | 0.0 | 0.0 | 0.05 | 0.15 | 0.15 | 88 | 1008.7 |
| 20260505204509 | 10 | 276 | 0.0 | 0.0 | 0.00 | 0.13 | 0.13 | 88 | 1008.6 |
| 20260505203011 | 10 | 276 | 0.0 | 0.0 | 0.00 | 0.13 | 0.13 | 88 | 1008.5 |
| 20260505201509 | 10 | 276 | 0.0 | 0.0 | 0.00 | 0.13 | 0.13 | 88 | 1008.5 |
| 20260505200008 | 10 | 277 | 0.0 | 0.0 | 0.00 | 0.13 | 0.13 | 87 | 1008.2 |
| 20260505194516 | 11 | 277 | 0.0 | 0.0 | 0.00 | 0.13 | 0.13 | 87 | 1007.9 |
| 20260505193009 | 11 | 275 | 0.0 | 0.0 | 0.00 | 0.13 | 0.13 | 87 | 1007.9 |
| 20260505191507 | 11 | 275 | 0.0 | 0.0 | 0.00 | 0.13 | 0.13 | 87 | 1007.9 |
| 20260505190006 | 11 | 284 | 0.0 | 0.0 | 0.00 | 0.13 | 0.13 | 87 | 1007.8 |
| 20260505184506 | 11 | 273 | 0.0 | 0.0 | 0.00 | 0.13 | 0.13 | 88 | 1007.7 |
| 20260505183005 | 11 | 345 | 0.0 | 0.0 | 0.00 | 0.13 | 0.13 | 88 | 1007.8 |
| 20260505181506 | 11 | 271 | 0.0 | 0.0 | 0.00 | 0.13 | 0.13 | 88 | 1007.8 |
| 20260505180004 | 11 | 271 | 0.0 | 0.0 | 0.00 | 0.13 | 0.13 | 87 | 1007.7 |
| 20260505174504 | 11 | 271 | 0.0 | 1.6 | 0.03 | 0.13 | 0.13 | 87 | 1007.9 |
| 20260505173006 | 12 | 277 | 0.0 | 0.0 | 0.08 | 0.13 | 0.13 | 86 | 1007.8 |
| 20260505171503 | 12 | 327 | 0.0 | 0.0 | 0.08 | 0.13 | 0.13 | 86 | 1007.7 |
| 20260505170003 | 12 | 327 | 0.0 | 0.0 | 0.08 | 0.13 | 0.13 | 84 | 1007.6 |
| 20260505164505 | 12 | 327 | 0.0 | 1.6 | 0.05 | 0.10 | 0.10 | 83 | 1007.3 |
| 20260505163003 | 12 | 327 | 0.0 | 3.2 | 0.00 | 0.05 | 0.05 | 80 | 1007.7 |
| 20260505161502 | 13 | 346 | 0.0 | 4.8 | 0.00 | 0.05 | 0.05 | 78 | 1007.7 |
| 20260505153111 | 16 | 14 | 0.0 | 9.7 | 0.00 | 0.05 | 0.05 | 70 | 1006.8 |
| 20260505151559 | 16 | 265 | 0.0 | 4.8 | 0.00 | 0.05 | 0.05 | 67 | 1006.6 |